Terminal Aerodrome Forecast
Issued by NWS

Home | Current Version | Previous Version | Text Only | Print | Product List | Glossary On
Versions: 1 2 3 4 5 6 7 8 9 10 11 12 13 14
595
FTUS44 KLZK 261740
TAFBPK
TAF
KBPK 261740Z 2618/2718 20014G23KT P6SM BKN019 OVC150
     FM262100 19013G23KT P6SM OVC030
     FM270100 17008KT P6SM BKN025 OVC050
     FM270800 17003KT 5SM BR BKN007 OVC015
     FM271500 19008KT P6SM VCSH OVC025=

USA.gov is the U.S. government's official web portal to all federal, state and local government web resources and services.